Weather at Narew

Public forecast

Using degrees Celsius for public forecast. Weather courtesy of forecast.io.

Closest aviation weather report (METAR) to Narew

Report is more than 6 hours old.

Closest report is Hrodna Airport, 45.5 nm (84.3 km) NNE.

2024/06/24 06:00 (retrieved 1 day ago)

UMMG 240600Z 32004G07MPS 9999 BKN012 OVC019 15/14 Q1014 NOSIG

Closest aviation forecast (TAF) to Narew

Forecast is more than 12 hours old.

Closest forecast is Warsaw Chopin Airport, 104.1 nm (192.7 km) WSW.

2024/06/24 21:33 (retrieved 12 hours ago)

TAF EPWA 242030Z 2421/2521 01005KT 9999 SCT040 BECMG 2515/2517 08010KT